createdAt,value
2018-05-29T00:02:05.213Z,31.35
2018-05-29T00:04:36.677Z,31.98
2018-05-29T00:07:05.910Z,31.27
2018-05-29T00:09:38.839Z,29.08
2018-05-29T00:12:11.824Z,31.92
2018-05-29T00:14:47.095Z,32.33
2018-05-29T00:17:16.871Z,33.40
2018-05-29T00:19:49.665Z,32.65
2018-05-29T00:22:22.582Z,33.08
2018-05-29T00:24:57.147Z,32.72
2018-05-29T00:27:27.652Z,32.50
2018-05-29T00:29:59.022Z,31.62
2018-05-29T00:32:29.788Z,32.40
2018-05-29T00:35:01.387Z,32.65
2018-05-29T00:37:31.569Z,32.80
2018-05-29T00:40:03.111Z,33.88
2018-05-29T00:42:38.777Z,34.38
2018-05-29T00:45:09.482Z,35.67
2018-05-29T00:47:39.399Z,34.58
2018-05-29T00:50:11.903Z,34.35
2018-05-29T00:52:43.446Z,35.65
2018-05-29T00:55:40.922Z,35.95
2018-05-29T00:58:12.344Z,32.75
2018-05-29T01:00:43.846Z,36.25
2018-05-29T01:03:15.733Z,39.63
2018-05-29T01:05:46.648Z,35.97
2018-05-29T01:08:20.048Z,34.67
2018-05-29T01:10:55.382Z,34.50
2018-05-29T01:13:29.748Z,37.53
2018-05-29T01:16:02.725Z,38.88
2018-05-29T01:18:35.212Z,38.97
2018-05-29T01:21:06.538Z,39.60
2018-05-29T01:23:36.556Z,38.50
2018-05-29T01:26:07.855Z,37.08
2018-05-29T01:28:39.280Z,39.15
2018-05-29T01:31:11.863Z,39.25
2018-05-29T01:33:44.673Z,36.58
2018-05-29T01:36:17.705Z,37.28
2018-05-29T01:38:50.593Z,38.20
2018-05-29T01:41:23.662Z,34.63
2018-05-29T01:43:53.725Z,35.97
2018-05-29T01:46:27.363Z,38.78
2018-05-29T01:49:01.924Z,38.83
2018-05-29T01:51:33.741Z,39.22
2018-05-29T01:54:05.156Z,41.17
2018-05-29T01:56:34.585Z,38.03
2018-05-29T01:59:06.677Z,37.30
2018-05-29T02:01:39.728Z,38.45
2018-05-29T02:04:09.634Z,39.03
2018-05-29T02:06:40.145Z,41.17
2018-05-29T02:09:11.727Z,39.75
2018-05-29T02:11:44.582Z,43.72
2018-05-29T02:14:17.508Z,43.40
2018-05-29T02:16:50.575Z,39.80
2018-05-29T02:19:20.602Z,45.65
2018-05-29T02:21:52.072Z,43.75
2018-05-29T02:24:25.340Z,45.78
2018-05-29T02:26:56.806Z,44.75
2018-05-29T02:29:29.762Z,47.80
2018-05-29T02:32:03.152Z,45.85
2018-05-29T02:34:34.608Z,47.10
2018-05-29T02:37:06.113Z,47.67
2018-05-29T02:39:39.357Z,47.42
2018-05-29T02:42:12.505Z,46.03
2018-05-29T02:44:43.824Z,45.15
2018-05-29T02:47:15.813Z,48.15
2018-05-29T02:49:48.629Z,45.65
2018-05-29T02:52:20.734Z,48.60
2018-05-29T02:54:50.639Z,48.20
2018-05-29T02:57:19.483Z,45.42
2018-05-29T02:59:49.223Z,49.30
2018-05-29T03:02:19.232Z,49.55
2018-05-29T03:04:52.168Z,51.17
2018-05-29T03:07:25.015Z,49.33
2018-05-29T03:09:57.967Z,49.38
2018-05-29T03:12:29.352Z,49.30
2018-05-29T03:15:01.330Z,49.05
2018-05-29T03:17:33.879Z,47.85
2018-05-29T03:20:05.256Z,50.55
2018-05-29T03:22:35.976Z,49.90
2018-05-29T03:25:06.304Z,50.30
2018-05-29T03:27:35.359Z,49.90
2018-05-29T03:30:06.029Z,51.40
2018-05-29T03:32:39.004Z,51.75
2018-05-29T03:35:09.901Z,51.05
2018-05-29T03:37:44.366Z,50.10
2018-05-29T03:40:15.890Z,52.33
2018-05-29T03:42:50.134Z,52.50
2018-05-29T03:45:21.738Z,52.22
2018-05-29T03:47:54.603Z,49.67
2018-05-29T03:50:27.560Z,53.80
2018-05-29T03:53:01.870Z,50.67
2018-05-29T03:55:33.411Z,53.03
2018-05-29T03:58:04.773Z,50.17
2018-05-29T04:00:36.196Z,54.60
2018-05-29T04:03:07.965Z,54.50
2018-05-29T04:05:43.499Z,53.92
2018-05-29T04:08:14.755Z,52.83
2018-05-29T04:10:46.066Z,50.60
2018-05-29T04:13:17.475Z,52.88
2018-05-29T04:15:49.366Z,51.70
2018-05-29T04:18:20.653Z,49.35
2018-05-29T04:20:54.943Z,50.10
2018-05-29T04:23:26.353Z,51.20
2018-05-29T04:25:57.876Z,52.55
2018-05-29T04:28:29.600Z,52.35
2018-05-29T04:30:59.577Z,51.37
2018-05-29T04:33:32.494Z,50.85
2018-05-29T04:36:05.021Z,49.78
2018-05-29T04:38:36.419Z,51.72
2018-05-29T04:41:07.308Z,48.95
2018-05-29T04:43:38.109Z,48.05
2018-05-29T04:46:12.361Z,52.03
2018-05-29T04:48:48.338Z,52.40
2018-05-29T04:51:20.250Z,50.42
2018-05-29T04:53:51.601Z,52.75
2018-05-29T04:56:22.973Z,52.53
2018-05-29T04:58:55.154Z,51.33
2018-05-29T05:01:27.942Z,54.47
2018-05-29T05:04:01.301Z,51.83
2018-05-29T05:06:34.129Z,54.03
2018-05-29T05:09:04.213Z,51.08
2018-05-29T05:11:38.232Z,54.67
2018-05-29T05:14:11.398Z,52.35
2018-05-29T05:16:45.146Z,49.80
2018-05-29T05:19:17.500Z,53.17
2018-05-29T05:21:49.501Z,49.63
2018-05-29T05:24:20.854Z,52.50
2018-05-29T05:26:52.810Z,52.42
2018-05-29T05:29:24.353Z,54.97
2018-05-29T05:31:56.767Z,50.25
2018-05-29T05:34:28.280Z,52.08
2018-05-29T05:37:01.900Z,53.17
2018-05-29T05:39:33.471Z,51.53
2018-05-29T05:42:08.030Z,52.10
2018-05-29T05:44:40.888Z,54.38
2018-05-29T05:47:12.405Z,56.88
2018-05-29T05:49:45.336Z,55.95
2018-05-29T05:52:16.004Z,55.45
2018-05-29T05:54:50.324Z,53.28
2018-05-29T05:57:20.237Z,51.20
2018-05-29T05:59:51.615Z,57.15
2018-05-29T06:02:24.914Z,52.50
2018-05-29T06:04:57.966Z,52.65
2018-05-29T06:07:30.305Z,52.22
2018-05-29T06:10:02.129Z,48.58
2018-05-29T06:12:34.295Z,50.70
2018-05-29T06:15:07.030Z,51.22
2018-05-29T06:17:38.321Z,51.78
2018-05-29T06:20:09.786Z,51.20
2018-05-29T06:22:41.987Z,52.15
2018-05-29T06:25:14.811Z,60.53
2018-05-29T06:27:49.205Z,51.60
2018-05-29T06:30:22.055Z,56.35
2018-05-29T06:32:52.933Z,49.17
2018-05-29T06:35:27.248Z,52.75
2018-05-29T06:38:00.672Z,53.38
2018-05-29T06:40:32.632Z,54.38
2018-05-29T06:43:04.334Z,54.20
2018-05-29T06:45:35.706Z,58.97
2018-05-29T06:48:07.409Z,53.33
2018-05-29T06:50:40.198Z,56.00
2018-05-29T06:53:11.593Z,53.17
2018-05-29T06:55:44.472Z,54.15
2018-05-29T06:58:17.353Z,50.65
2018-05-29T07:00:50.201Z,53.85
2018-05-29T07:03:24.657Z,53.95
2018-05-29T07:05:57.468Z,54.60
2018-05-29T07:08:31.893Z,55.10
2018-05-29T07:11:04.709Z,52.62
2018-05-29T07:13:36.055Z,48.90
2018-05-29T07:16:10.375Z,52.78
2018-05-29T07:18:41.731Z,49.35
2018-05-29T07:21:14.078Z,48.92
2018-05-29T07:23:46.931Z,51.17
2018-05-29T07:26:19.683Z,49.25
2018-05-29T07:28:51.746Z,48.55
2018-05-29T07:31:21.912Z,46.92
2018-05-29T07:33:54.702Z,49.67
2018-05-29T07:36:26.018Z,50.88
2018-05-29T07:38:55.811Z,48.13
2018-05-29T07:41:28.288Z,47.90
2018-05-29T07:44:01.557Z,49.35
2018-05-29T07:46:35.746Z,45.20
2018-05-29T07:49:09.307Z,44.80
2018-05-29T07:51:40.738Z,46.35
2018-05-29T07:54:12.036Z,42.28
2018-05-29T07:56:44.891Z,45.70
2018-05-29T07:59:16.318Z,45.20
2018-05-29T08:01:47.681Z,46.50
2018-05-29T08:04:17.684Z,44.80
2018-05-29T08:06:51.890Z,44.20
2018-05-29T08:09:23.689Z,42.38
2018-05-29T08:11:58.089Z,46.70
2018-05-29T08:14:33.613Z,45.58
2018-05-29T08:17:06.476Z,43.00
2018-05-29T08:19:38.334Z,49.08
2018-05-29T08:22:12.467Z,49.90
2018-05-29T08:24:46.756Z,43.67
2018-05-29T08:27:20.284Z,44.97
2018-05-29T08:29:51.740Z,44.33
2018-05-29T08:32:23.047Z,45.58
2018-05-29T08:34:55.821Z,44.05
2018-05-29T08:37:29.304Z,45.85
2018-05-29T08:40:02.430Z,43.95
2018-05-29T08:42:32.351Z,52.55
2018-05-29T08:45:06.666Z,48.80
2018-05-29T08:47:39.609Z,48.47
2018-05-29T08:50:12.526Z,48.80
2018-05-29T08:52:45.499Z,46.13
2018-05-29T08:55:15.896Z,44.50
2018-05-29T08:57:45.755Z,44.28
2018-05-29T09:00:18.511Z,46.60
2018-05-29T09:02:51.708Z,45.20
2018-05-29T09:05:23.051Z,46.28
2018-05-29T09:07:55.790Z,46.20
2018-05-29T09:10:28.530Z,45.78
2018-05-29T09:13:02.655Z,42.05
2018-05-29T09:15:33.460Z,42.88
2018-05-29T09:18:06.407Z,36.40
2018-05-29T09:20:36.976Z,35.45
2018-05-29T09:23:09.752Z,36.20
2018-05-29T09:25:40.618Z,32.85
2018-05-29T09:28:11.977Z,33.97
2018-05-29T09:30:45.396Z,39.38
2018-05-29T09:33:18.848Z,33.50
2018-05-29T09:35:52.722Z,37.28
2018-05-29T09:38:25.511Z,28.35
2018-05-29T09:40:56.945Z,35.03
2018-05-29T09:43:28.281Z,35.03
2018-05-29T09:46:01.095Z,32.65
2018-05-29T09:48:35.224Z,29.00
2018-05-29T09:51:07.305Z,29.67
2018-05-29T09:53:37.845Z,30.52
2018-05-29T09:56:10.659Z,33.60
2018-05-29T09:58:42.074Z,28.08
2018-05-29T10:01:15.033Z,28.45
2018-05-29T10:03:46.200Z,29.05
2018-05-29T10:06:19.016Z,30.70
2018-05-29T10:08:50.383Z,31.30
2018-05-29T10:11:20.315Z,31.05
2018-05-29T10:13:53.024Z,31.37
2018-05-29T10:16:25.129Z,32.05
2018-05-29T10:18:59.402Z,32.75
2018-05-29T10:21:30.991Z,28.65
2018-05-29T10:24:03.740Z,29.02
2018-05-29T10:26:35.855Z,31.67
2018-05-29T10:29:08.631Z,26.75
2018-05-29T10:31:38.620Z,29.37
2018-05-29T10:34:12.892Z,26.00
2018-05-29T10:36:45.768Z,25.90
2018-05-29T10:39:18.972Z,27.58
2018-05-29T10:41:51.896Z,25.05
2018-05-29T10:44:23.265Z,22.85
2018-05-29T10:46:55.271Z,21.75
2018-05-29T10:49:28.156Z,19.75
2018-05-29T10:52:02.372Z,21.33
2018-05-29T10:54:36.963Z,20.92
2018-05-29T10:57:09.846Z,20.65
2018-05-29T10:59:43.395Z,24.85
2018-05-29T11:02:14.813Z,23.38
2018-05-29T11:04:46.855Z,23.20
2018-05-29T11:07:18.319Z,23.38
2018-05-29T11:09:51.895Z,22.85
2018-05-29T11:12:23.203Z,22.15
2018-05-29T11:14:56.081Z,19.98
2018-05-29T11:17:27.699Z,18.17
2018-05-29T11:19:57.532Z,17.80
2018-05-29T11:22:27.341Z,24.58
2018-05-29T11:25:00.306Z,19.80
2018-05-29T11:27:33.083Z,18.77
2018-05-29T11:30:04.376Z,17.65
2018-05-29T11:32:38.637Z,20.58
2018-05-29T11:35:09.973Z,17.25
2018-05-29T11:37:42.989Z,21.15
2018-05-29T11:40:16.677Z,19.30
2018-05-29T11:42:49.373Z,23.17
2018-05-29T11:45:19.244Z,22.58
2018-05-29T11:47:53.660Z,19.25
2018-05-29T11:50:25.128Z,17.73
2018-05-29T11:52:56.438Z,20.98
2018-05-29T11:55:28.277Z,19.42
2018-05-29T11:58:02.654Z,21.08
2018-05-29T12:00:35.486Z,18.85
2018-05-29T12:03:08.805Z,21.00
2018-05-29T12:05:44.115Z,22.50
2018-05-29T12:08:16.964Z,20.25
2018-05-29T12:10:48.631Z,21.27
2018-05-29T12:13:19.033Z,19.60
2018-05-29T12:15:53.269Z,20.37
2018-05-29T12:18:26.527Z,20.77
2018-05-29T12:20:59.204Z,20.88
2018-05-29T12:23:29.071Z,20.92
2018-05-29T12:26:00.204Z,21.55
2018-05-29T12:28:33.873Z,20.23
2018-05-29T12:31:07.009Z,19.95
2018-05-29T12:33:37.691Z,20.33
2018-05-29T12:36:10.555Z,18.12
2018-05-29T12:38:42.586Z,19.45
2018-05-29T12:41:14.460Z,19.70
2018-05-29T12:43:48.730Z,20.67
2018-05-29T12:46:20.590Z,20.15
2018-05-29T12:48:50.966Z,19.87
2018-05-29T12:51:24.192Z,20.73
2018-05-29T12:53:55.485Z,20.65
2018-05-29T12:56:26.793Z,21.58
2018-05-29T12:58:59.635Z,17.45
2018-05-29T13:01:29.454Z,19.25
2018-05-29T13:04:00.795Z,19.25
2018-05-29T13:06:32.877Z,20.23
2018-05-29T13:09:04.317Z,22.95
2018-05-29T13:11:34.725Z,21.48
2018-05-29T13:14:06.944Z,19.73
2018-05-29T13:16:39.669Z,17.33
2018-05-29T13:19:09.490Z,20.88
2018-05-29T13:21:40.927Z,19.98
2018-05-29T13:24:16.165Z,18.45
2018-05-29T13:26:49.022Z,19.95
2018-05-29T13:29:18.867Z,20.27
2018-05-29T13:31:50.222Z,17.25
2018-05-29T13:34:23.617Z,20.75
2018-05-29T13:36:55.423Z,21.27
2018-05-29T13:39:29.115Z,21.62
2018-05-29T13:42:09.755Z,19.40
2018-05-29T13:44:42.462Z,19.95
2018-05-29T13:47:16.002Z,19.02
2018-05-29T13:49:50.272Z,19.58
2018-05-29T13:52:23.060Z,19.30
2018-05-29T13:54:56.622Z,19.40
2018-05-29T13:57:30.903Z,20.85
2018-05-29T14:00:05.476Z,15.60
2018-05-29T14:02:36.814Z,10.52
2018-05-29T14:05:08.234Z,7.40
2018-05-29T14:07:39.897Z,7.43
2018-05-29T14:10:12.736Z,9.45
2018-05-29T14:12:44.045Z,9.25
2018-05-29T14:15:17.393Z,7.55
2018-05-29T14:17:50.321Z,8.15
2018-05-29T14:20:23.250Z,7.55
2018-05-29T14:22:57.631Z,8.15
2018-05-29T14:25:31.065Z,8.32
2018-05-29T14:28:03.871Z,8.32
2018-05-29T14:30:36.502Z,9.55
2018-05-29T14:33:10.852Z,10.07
2018-05-29T14:35:45.279Z,10.55
2018-05-29T14:38:18.707Z,11.12
2018-05-29T14:40:51.622Z,11.80
2018-05-29T14:43:25.965Z,12.43
2018-05-29T14:45:58.781Z,12.52
2018-05-29T14:48:31.142Z,13.38
2018-05-29T14:51:04.218Z,13.77
2018-05-29T14:53:37.840Z,12.37
2018-05-29T14:56:07.710Z,13.00
2018-05-29T14:58:39.059Z,12.65
2018-05-29T15:01:08.968Z,11.20
2018-05-29T15:03:43.263Z,11.23
2018-05-29T15:06:15.032Z,9.88
2018-05-29T15:08:49.343Z,10.27
2018-05-29T15:11:19.220Z,10.40
2018-05-29T15:13:52.048Z,10.07
2018-05-29T15:16:26.198Z,9.98
2018-05-29T15:18:56.165Z,9.13
2018-05-29T15:21:30.520Z,10.73
2018-05-29T15:24:24.927Z,11.98
2018-05-29T15:26:57.976Z,15.32
2018-05-29T15:29:32.095Z,14.48
2018-05-29T15:32:05.182Z,12.80
2018-05-29T15:34:38.100Z,13.30
2018-05-29T15:37:12.868Z,20.67
2018-05-29T15:39:45.851Z,17.87
2018-05-29T15:42:19.238Z,14.50
2018-05-29T15:45:04.351Z,14.60
2018-05-29T15:47:37.212Z,13.80
2018-05-29T15:50:07.337Z,14.70
2018-05-29T15:52:40.188Z,13.98
2018-05-29T15:55:12.991Z,13.98
2018-05-29T15:57:44.375Z,16.83
2018-05-29T16:00:17.788Z,14.68
2018-05-29T16:02:50.642Z,13.95
2018-05-29T16:05:24.976Z,13.38
2018-05-29T16:07:55.596Z,13.65
2018-05-29T16:10:27.618Z,14.63
2018-05-29T16:12:59.634Z,15.43
2018-05-29T16:15:33.287Z,9.57
2018-05-29T16:18:07.624Z,9.52
2018-05-29T16:20:41.863Z,8.30
2018-05-29T16:23:15.166Z,8.45
2018-05-29T16:25:46.698Z,9.48
2018-05-29T16:28:21.030Z,11.02
2018-05-29T16:30:52.383Z,11.48
2018-05-29T16:33:22.703Z,13.15
2018-05-29T16:35:54.929Z,12.30
2018-05-29T16:38:29.278Z,12.18
2018-05-29T16:41:01.356Z,12.07
2018-05-29T16:43:31.804Z,10.88
2018-05-29T16:46:04.673Z,9.60
2018-05-29T16:48:38.218Z,9.73
2018-05-29T16:51:09.711Z,9.75
2018-05-29T16:53:41.771Z,11.30
2018-05-29T16:56:13.357Z,12.25
2018-05-29T16:58:46.264Z,12.93
2018-05-29T17:01:18.198Z,14.20
2018-05-29T17:03:49.686Z,13.20
2018-05-29T17:06:21.136Z,13.98
2018-05-29T17:08:52.662Z,14.57
2018-05-29T17:11:24.009Z,14.25
2018-05-29T17:13:57.033Z,16.77
2018-05-29T17:16:29.944Z,18.48
2018-05-29T17:19:04.479Z,17.02
2018-05-29T17:21:38.734Z,20.83
2018-05-29T17:24:11.527Z,17.80
2018-05-29T17:26:43.131Z,18.50
2018-05-29T17:29:15.218Z,18.95
2018-05-29T17:31:49.572Z,19.98
2018-05-29T17:34:20.943Z,19.33
2018-05-29T17:36:52.424Z,14.05
2018-05-29T17:39:24.083Z,16.05
2018-05-29T17:41:55.536Z,15.25
2018-05-29T17:44:27.974Z,15.02
2018-05-29T17:46:59.592Z,14.65
2018-05-29T17:49:32.606Z,16.58
2018-05-29T17:52:04.775Z,13.60
2018-05-29T17:54:37.683Z,12.57
2018-05-29T17:57:10.248Z,16.65
2018-05-29T17:59:42.266Z,15.98
2018-05-29T18:02:16.942Z,16.08
2018-05-29T18:04:51.505Z,17.83
2018-05-29T18:07:26.132Z,18.40
2018-05-29T18:10:00.720Z,19.55
2018-05-29T18:12:32.102Z,17.52
2018-05-29T18:15:04.461Z,20.05
2018-05-29T18:17:37.398Z,19.48
2018-05-29T18:20:10.353Z,19.27
2018-05-29T18:22:42.870Z,19.27
2018-05-29T18:25:17.375Z,17.85
2018-05-29T18:27:50.284Z,16.90
2018-05-29T18:30:24.117Z,17.17
2018-05-29T18:32:57.352Z,18.85
2018-05-29T18:35:31.818Z,19.92
2018-05-29T18:38:06.557Z,21.85
2018-05-29T18:40:36.649Z,19.55
2018-05-29T18:43:08.106Z,21.90
2018-05-29T18:45:42.508Z,19.50
2018-05-29T18:48:12.548Z,19.75
2018-05-29T18:50:45.613Z,19.83
2018-05-29T18:53:15.953Z,28.08
2018-05-29T18:55:47.535Z,37.13
2018-05-29T18:58:19.019Z,46.72
2018-05-29T19:00:53.733Z,53.70
2018-05-29T19:03:26.650Z,53.85
2018-05-29T19:05:58.458Z,55.60
2018-05-29T19:08:29.411Z,54.33
2018-05-29T19:11:00.316Z,54.03
2018-05-29T19:13:33.318Z,53.22
2018-05-29T19:16:06.491Z,47.97
2018-05-29T19:18:40.632Z,47.55
2018-05-29T19:21:12.114Z,46.22
2018-05-29T19:23:46.462Z,49.42
2018-05-29T19:26:17.228Z,45.35
2018-05-29T19:28:49.928Z,45.60
2018-05-29T19:31:24.514Z,57.10
2018-05-29T19:33:56.004Z,37.78
2018-05-29T19:36:30.906Z,43.72
2018-05-29T19:39:03.915Z,40.38
2018-05-29T19:41:35.586Z,36.50
2018-05-29T19:44:10.263Z,36.88
2018-05-29T19:46:43.518Z,35.65
2018-05-29T19:49:15.095Z,33.58
2018-05-29T19:51:48.120Z,33.13
2018-05-29T19:54:21.086Z,32.97
2018-05-29T19:56:53.941Z,36.40
2018-05-29T19:59:26.418Z,34.80
2018-05-29T20:01:59.334Z,36.90
2018-05-29T20:04:29.317Z,35.20
2018-05-29T20:07:00.806Z,37.00
2018-05-29T20:09:33.036Z,37.90
2018-05-29T20:12:05.169Z,37.35
2018-05-29T20:14:38.353Z,35.65
2018-05-29T20:17:11.532Z,45.00
2018-05-29T20:19:41.742Z,38.28
2018-05-29T20:22:15.532Z,37.92
2018-05-29T20:24:48.452Z,40.08
2018-05-29T20:27:20.113Z,43.38
2018-05-29T20:29:54.488Z,43.55
2018-05-29T20:32:28.298Z,45.08
2018-05-29T20:35:01.648Z,45.33
2018-05-29T20:37:35.882Z,46.40
2018-05-29T20:40:09.009Z,45.72
2018-05-29T20:42:40.374Z,46.97
2018-05-29T20:45:13.206Z,44.40
2018-05-29T20:47:43.900Z,43.45
2018-05-29T20:50:18.197Z,46.22
2018-05-29T20:52:49.816Z,39.90
2018-05-29T20:55:19.727Z,40.63
2018-05-29T20:57:51.177Z,35.90
2018-05-29T21:00:24.205Z,30.00
2018-05-29T21:02:57.487Z,27.58
2018-05-29T21:05:30.386Z,26.50
2018-05-29T21:08:03.710Z,23.92
2018-05-29T21:10:36.935Z,24.23
2018-05-29T21:13:09.792Z,26.45
2018-05-29T21:15:43.143Z,31.08
2018-05-29T21:18:16.387Z,37.55
2018-05-29T21:20:48.824Z,39.80
2018-05-29T21:23:21.251Z,38.80
2018-05-29T21:25:54.219Z,41.33
2018-05-29T21:28:27.398Z,39.15
2018-05-29T21:31:00.001Z,41.53
2018-05-29T21:33:34.366Z,54.05
2018-05-29T21:36:05.845Z,37.60
2018-05-29T21:38:38.975Z,40.58
2018-05-29T21:41:11.985Z,41.55
2018-05-29T21:43:44.915Z,40.40
2018-05-29T21:46:16.417Z,42.30
2018-05-29T21:48:50.963Z,43.00
2018-05-29T21:51:23.927Z,39.63
2018-05-29T21:53:58.687Z,40.58
2018-05-29T21:56:32.031Z,48.75
2018-05-29T21:59:05.002Z,50.83
2018-05-29T22:01:37.980Z,52.97
2018-05-29T22:04:11.065Z,57.03
2018-05-29T22:06:42.385Z,58.53
2018-05-29T22:09:12.709Z,60.08
2018-05-29T22:11:45.996Z,63.15
2018-05-29T22:14:18.956Z,66.30
2018-05-29T22:16:52.277Z,64.35
2018-05-29T22:19:25.269Z,68.03
2018-05-29T22:21:59.863Z,67.60
2018-05-29T22:24:32.703Z,64.80
2018-05-29T22:27:04.383Z,62.90
2018-05-29T22:29:39.267Z,66.82
2018-05-29T22:32:10.712Z,63.03
2018-05-29T22:34:43.557Z,61.53
2018-05-29T22:37:16.735Z,60.60
2018-05-29T22:39:48.316Z,60.25
2018-05-29T22:42:22.813Z,60.92
2018-05-29T22:44:55.265Z,61.28
2018-05-29T22:47:26.881Z,58.08
2018-05-29T22:49:59.785Z,60.08
2018-05-29T22:52:34.294Z,58.03
2018-05-29T22:55:06.342Z,59.42
2018-05-29T22:57:39.442Z,58.33
2018-05-29T23:00:12.458Z,62.08
2018-05-29T23:02:45.775Z,59.00
2018-05-29T23:05:18.944Z,61.42
2018-05-29T23:07:52.095Z,60.25
2018-05-29T23:10:26.874Z,60.63
2018-05-29T23:12:59.876Z,59.60
2018-05-29T23:15:33.195Z,56.50
2018-05-29T23:18:06.171Z,62.03
2018-05-29T23:20:39.104Z,61.35
2018-05-29T23:23:13.802Z,62.30
2018-05-29T23:25:46.732Z,61.22
2018-05-29T23:28:19.757Z,63.42
2018-05-29T23:30:53.008Z,61.08
2018-05-29T23:33:26.019Z,66.50
2018-05-29T23:35:55.953Z,66.50
2018-05-29T23:38:29.471Z,59.17
2018-05-29T23:41:01.097Z,55.22
2018-05-29T23:43:34.147Z,55.00
2018-05-29T23:46:07.054Z,54.72
2018-05-29T23:48:41.740Z,57.40
2018-05-29T23:51:11.639Z,65.43
2018-05-29T23:53:46.520Z,67.30
2018-05-29T23:56:18.637Z,65.57
2018-05-29T23:58:53.383Z,66.65
